Time;durP1;ratioP1;P1;durP2;ratioP2;P2;SDS_P1;SDS_P2;PMS_P1;PMS_P2;Temp;Humidity;BMP_temperature;BMP_pressure;BME280_temperature;BME280_humidity;BME280_pressure;Samples;Min_cycle;Max_cycle;Signal;HPM_P1;HPM_P2
2023/01/16 00:01:00;;;;;;;2.88;1.55;;;4.20;99.90;;;;;;5033074;28;20073;-63
2023/01/16 00:03:25;;;;;;;1.52;0.90;;;4.20;99.90;;;;;;5032805;28;20045;-63
2023/01/16 00:05:51;;;;;;;0.77;0.60;;;4.20;99.90;;;;;;5033051;28;20064;-63
2023/01/16 00:08:17;;;;;;;4.32;1.20;;;4.10;99.90;;;;;;5015046;28;20049;-63
2023/01/16 00:10:44;;;;;;;2.83;1.00;;;4.10;99.90;;;;;;5032981;28;20396;-63
2023/01/16 00:13:11;;;;;;;1.95;1.08;;;4.10;99.90;;;;;;5032639;28;20084;-63
2023/01/16 00:15:36;;;;;;;1.40;1.17;;;4.10;99.90;;;;;;5015143;28;20049;-63
2023/01/16 00:18:02;;;;;;;1.83;1.20;;;4.00;99.90;;;;;;5032748;28;20033;-63
2023/01/16 00:20:28;;;;;;;2.20;1.30;;;3.90;99.90;;;;;;5032904;28;20037;-63
2023/01/16 00:22:53;;;;;;;1.95;0.95;;;3.90;99.90;;;;;;5032862;28;20041;-63
2023/01/16 00:25:19;;;;;;;1.08;0.85;;;3.80;99.90;;;;;;5032498;28;20041;-63
2023/01/16 00:27:44;;;;;;;1.13;0.75;;;3.80;99.90;;;;;;5032808;28;20041;-63
2023/01/16 00:30:10;;;;;;;0.75;0.65;;;3.80;99.90;;;;;;5032786;28;20041;-63
2023/01/16 00:32:36;;;;;;;2.47;0.93;;;3.80;99.90;;;;;;5035864;28;20449;-63
2023/01/16 00:35:02;;;;;;;6.43;1.92;;;3.70;99.90;;;;;;5002277;28;20048;-63
2023/01/16 00:37:28;;;;;;;3.85;1.10;;;3.70;99.90;;;;;;5018865;28;20038;-63
2023/01/16 00:39:53;;;;;;;2.40;1.10;;;3.70;99.90;;;;;;5018499;28;20069;-63
2023/01/16 00:42:19;;;;;;;1.85;0.82;;;3.60;99.90;;;;;;5036518;28;20033;-63
2023/01/16 00:44:45;;;;;;;1.05;0.93;;;3.60;99.90;;;;;;5018422;28;20041;-63
2023/01/16 00:47:11;;;;;;;2.42;0.90;;;3.60;99.90;;;;;;5018400;28;20370;-63
2023/01/16 00:49:36;;;;;;;1.05;0.88;;;3.50;99.90;;;;;;5018422;28;20050;-63
2023/01/16 00:52:03;;;;;;;3.97;1.17;;;3.50;99.90;;;;;;5018552;28;20034;-63
2023/01/16 00:54:28;;;;;;;1.88;1.10;;;3.50;99.90;;;;;;5018152;28;20037;-63
2023/01/16 00:56:54;;;;;;;3.17;1.30;;;3.50;99.90;;;;;;5036182;28;20592;-63
2023/01/16 00:59:20;;;;;;;1.33;0.77;;;3.40;99.90;;;;;;5036076;28;20400;-63
2023/01/16 01:01:45;;;;;;;4.57;0.85;;;3.40;99.90;;;;;;5036151;28;20396;-63
2023/01/16 01:04:12;;;;;;;3.22;1.15;;;3.40;99.90;;;;;;5035591;28;20118;-63
2023/01/16 01:06:38;;;;;;;2.28;0.82;;;3.30;99.90;;;;;;5018041;28;20042;-63
2023/01/16 01:09:04;;;;;;;2.40;0.95;;;3.30;99.90;;;;;;5035981;28;20045;-63
2023/01/16 01:11:29;;;;;;;3.45;0.90;;;3.30;99.90;;;;;;5035593;28;20047;-63
2023/01/16 01:13:55;;;;;;;2.80;0.93;;;3.30;99.90;;;;;;5035906;28;20042;-63
2023/01/16 01:16:20;;;;;;;1.60;0.90;;;3.30;99.90;;;;;;5035856;28;20077;-63
2023/01/16 01:18:46;;;;;;;4.53;2.10;;;3.30;99.90;;;;;;5035810;28;20037;-64
2023/01/16 01:21:12;;;;;;;5.03;1.05;;;3.40;99.90;;;;;;5018005;28;20056;-65
2023/01/16 01:23:37;;;;;;;2.10;0.90;;;3.40;99.90;;;;;;5035702;28;20045;-63
2023/01/16 01:26:14;;;;;;;3.35;0.90;;;3.40;99.90;;;;;;5035683;28;20088;-63
2023/01/16 01:28:40;;;;;;;1.75;0.73;;;3.40;99.90;;;;;;5017706;28;20041;-63
2023/01/16 01:31:07;;;;;;;4.18;1.63;;;3.40;99.90;;;;;;5035583;28;20405;-63
2023/01/16 01:33:33;;;;;;;1.15;0.90;;;3.40;99.90;;;;;;5017489;28;20509;-63
2023/01/16 01:35:59;;;;;;;2.72;0.70;;;3.40;99.90;;;;;;5035118;28;20492;-63
2023/01/16 01:38:25;;;;;;;1.02;0.73;;;3.40;99.90;;;;;;5035394;28;20096;-63
2023/01/16 01:40:51;;;;;;;1.23;0.82;;;3.30;99.90;;;;;;5035427;28;20120;-63
2023/01/16 01:43:16;;;;;;;1.60;0.90;;;3.30;99.90;;;;;;5034679;28;20072;-63
2023/01/16 01:45:51;;;;;;;7.18;1.15;;;3.30;99.90;;;;;;5035350;28;20049;-63
2023/01/16 01:48:26;;;;;;;1.80;0.75;;;3.20;99.90;;;;;;5035338;28;20041;-63
2023/01/16 01:50:57;;;;;;;1.73;0.80;;;3.20;99.90;;;;;;5035270;28;20456;-63
2023/01/16 01:53:31;;;;;;;0.93;0.70;;;3.20;99.90;;;;;;5017568;28;20112;-63
2023/01/16 01:56:01;;;;;;;5.22;1.20;;;3.20;99.90;;;;;;5035208;28;20453;-63
2023/01/16 01:58:28;;;;;;;0.98;0.80;;;3.30;99.90;;;;;;5035013;28;20041;-63
2023/01/16 02:00:58;;;;;;;1.85;0.90;;;3.40;99.90;;;;;;5035061;28;20076;-63
2023/01/16 02:03:36;;;;;;;6.00;0.70;;;3.40;99.90;;;;;;5016838;28;20057;-63
2023/01/16 02:06:07;;;;;;;1.25;0.82;;;3.50;99.90;;;;;;5034983;28;20044;-63
2023/01/16 02:08:34;;;;;;;3.13;0.95;;;3.50;99.90;;;;;;5034895;28;20428;-63
2023/01/16 02:11:08;;;;;;;4.15;0.88;;;3.60;99.90;;;;;;5034494;28;20041;-63
2023/01/16 02:13:37;;;;;;;3.42;0.90;;;3.60;99.90;;;;;;5017027;28;20098;-63
2023/01/16 02:22:12;;;;;;;2.05;0.82;;;3.70;99.90;;;;;;5034382;28;20041;-63
2023/01/16 02:24:52;;;;;;;0.40;0.40;;;3.80;99.90;;;;;;5016812;28;20037;-63
2023/01/16 02:27:47;;;;;;;2.50;0.97;;;3.80;99.90;;;;;;5034231;28;20045;-63
2023/01/16 02:30:50;;;;;;;6.63;0.90;;;3.80;99.90;;;;;;5016699;28;20099;-63
2023/01/16 02:33:27;;;;;;;3.28;1.48;;;3.90;99.90;;;;;;5034122;28;20041;-63
2023/01/16 02:36:20;;;;;;;1.52;0.93;;;3.90;99.90;;;;;;5000080;28;20055;-64
2023/01/16 02:39:07;;;;;;;1.98;1.20;;;3.80;99.90;;;;;;5033931;28;20041;-63
2023/01/16 02:42:03;;;;;;;0.93;0.63;;;3.80;99.90;;;;;;5033879;28;20045;-63
2023/01/16 02:44:57;;;;;;;1.33;0.93;;;3.80;99.90;;;;;;5033921;28;20037;-63
2023/01/16 02:47:31;;;;;;;1.85;0.73;;;3.80;99.90;;;;;;5033853;28;20065;-63
2023/01/16 02:50:51;;;;;;;1.08;0.70;;;3.80;99.90;;;;;;5016190;28;20114;-64
2023/01/16 02:53:28;;;;;;;1.35;0.75;;;3.80;99.90;;;;;;4972758;28;20563;-63
2023/01/16 02:55:57;;;;;;;6.00;0.98;;;3.80;99.90;;;;;;5024725;28;20386;-63
2023/01/16 02:58:26;;;;;;;1.90;0.73;;;3.90;99.90;;;;;;5034201;28;20034;-63
2023/01/16 03:00:57;;;;;;;8.30;0.90;;;3.90;99.90;;;;;;5033934;28;20140;-63
2023/01/16 03:03:39;;;;;;;1.42;0.95;;;3.90;99.90;;;;;;5033537;28;20057;-63
2023/01/16 03:06:36;;;;;;;2.45;0.70;;;4.00;99.90;;;;;;5033490;28;20128;-63
2023/01/16 03:09:23;;;;;;;2.25;0.52;;;3.90;99.90;;;;;;5033724;28;20052;-63
2023/01/16 03:12:13;;;;;;;3.63;0.63;;;3.90;99.90;;;;;;5033448;28;20092;-63
2023/01/16 03:15:03;;;;;;;1.52;0.90;;;3.90;99.90;;;;;;5033541;28;20037;-63
2023/01/16 03:18:07;;;;;;;0.47;0.47;;;3.80;99.90;;;;;;5007498;28;20053;-63
2023/01/16 03:21:11;;;;;;;0.77;0.50;;;3.80;99.90;;;;;;5015505;28;20045;-63
2023/01/16 03:23:51;;;;;;;1.05;0.90;;;3.80;99.90;;;;;;5033217;28;20451;-63
2023/01/16 03:26:32;;;;;;;1.13;0.52;;;3.80;99.90;;;;;;5015512;28;20396;-63
2023/01/16 03:29:12;;;;;;;4.32;0.90;;;3.80;99.90;;;;;;5033490;28;20041;-63
2023/01/16 03:31:55;;;;;;;2.13;0.90;;;3.70;99.90;;;;;;5033411;28;20407;-63
2023/01/16 03:34:41;;;;;;;6.30;0.90;;;3.70;99.90;;;;;;5033115;28;20037;-63
2023/01/16 03:37:25;;;;;;;3.72;1.05;;;3.70;99.90;;;;;;5032610;28;20479;-63
2023/01/16 03:39:59;;;;;;;3.72;1.00;;;3.70;99.90;;;;;;5033213;28;20504;-63
2023/01/16 03:42:31;;;;;;;2.35;1.00;;;3.70;99.90;;;;;;5033247;28;20378;-63
2023/01/16 03:45:08;;;;;;;2.58;0.93;;;3.80;99.90;;;;;;5033296;28;20065;-63
2023/01/16 03:47:46;;;;;;;7.40;1.30;;;3.80;99.90;;;;;;5033129;28;20037;-63
2023/01/16 03:50:13;;;;;;;2.70;0.85;;;3.90;99.90;;;;;;5015532;28;20045;-63
2023/01/16 03:52:45;;;;;;;1.65;0.88;;;3.90;99.90;;;;;;5033146;28;20037;-63
2023/01/16 03:55:16;;;;;;;2.10;1.02;;;4.00;99.90;;;;;;5032829;28;20124;-64
2023/01/16 03:57:49;;;;;;;1.58;0.82;;;4.00;99.90;;;;;;5033091;28;20033;-63
2023/01/16 04:00:16;;;;;;;1.33;0.75;;;4.00;99.90;;;;;;5033011;28;20091;-63
2023/01/16 04:02:48;;;;;;;4.40;1.23;;;4.00;99.90;;;;;;5032828;28;20057;-64
2023/01/16 04:06:15;;;;;;;1.10;0.68;;;4.00;99.90;;;;;;5015380;28;20072;-63
2023/01/16 04:08:42;;;;;;;3.28;1.25;;;4.10;99.90;;;;;;5003419;28;20052;-63
2023/01/16 04:11:11;;;;;;;2.63;1.65;;;4.10;99.90;;;;;;5019180;28;20044;-63
2023/01/16 04:13:40;;;;;;;5.53;1.23;;;4.10;99.90;;;;;;5036996;28;20481;-63
2023/01/16 04:16:10;;;;;;;6.78;1.77;;;4.10;99.90;;;;;;5019396;28;20116;-63
2023/01/16 04:18:36;;;;;;;3.03;1.40;;;4.10;99.90;;;;;;5018936;28;20053;-63
2023/01/16 04:21:07;;;;;;;5.10;2.03;;;4.10;99.90;;;;;;5036536;28;20331;-63
2023/01/16 04:23:33;;;;;;;2.45;1.35;;;4.20;99.90;;;;;;5018834;28;20128;-64
2023/01/16 04:25:59;;;;;;;3.08;1.35;;;4.10;99.90;;;;;;5036876;28;20508;-63
2023/01/16 04:28:25;;;;;;;3.53;1.50;;;4.10;99.90;;;;;;5036501;28;20092;-63
2023/01/16 04:30:51;;;;;;;2.75;1.70;;;4.20;99.90;;;;;;5036707;28;20045;-63
2023/01/16 04:33:16;;;;;;;7.78;1.52;;;4.10;99.90;;;;;;5018906;28;20128;-63
2023/01/16 04:35:42;;;;;;;2.10;1.33;;;4.10;99.90;;;;;;5018732;28;20044;-63
2023/01/16 04:38:07;;;;;;;3.15;1.65;;;4.10;99.90;;;;;;5036507;28;20091;-63
2023/01/16 04:40:33;;;;;;;4.03;1.73;;;4.10;99.90;;;;;;5036317;28;20463;-63
2023/01/16 04:42:59;;;;;;;4.35;2.10;;;4.20;99.90;;;;;;5036506;28;20041;-64
2023/01/16 04:45:24;;;;;;;3.55;2.10;;;4.20;99.90;;;;;;5036460;28;20551;-63
2023/01/16 04:47:51;;;;;;;4.40;2.15;;;4.20;99.90;;;;;;5036459;28;20050;-63
2023/01/16 04:50:17;;;;;;;7.07;2.40;;;4.30;99.90;;;;;;5036321;28;20037;-63
2023/01/16 04:52:43;;;;;;;3.03;2.00;;;4.30;99.90;;;;;;5036265;28;20055;-63
2023/01/16 04:55:10;;;;;;;4.90;2.30;;;4.40;99.90;;;;;;5036288;28;20045;-63
2023/01/16 04:57:35;;;;;;;3.38;2.00;;;4.50;99.90;;;;;;5036210;28;20090;-64
2023/01/16 05:00:03;;;;;;;6.22;2.42;;;4.30;99.90;;;;;;5035891;28;20373;-63
2023/01/16 05:02:29;;;;;;;6.85;2.42;;;;;;;;;;5018009;28;20225;-63
2023/01/16 05:04:54;;;;;;;3.67;2.45;;;4.30;99.90;;;;;;5036108;28;20505;-63
2023/01/16 05:07:20;;;;;;;5.97;2.72;;;4.30;99.90;;;;;;5018009;28;20042;-63
2023/01/16 05:09:45;;;;;;;5.57;2.95;;;4.30;99.90;;;;;;5036074;28;20041;-63
2023/01/16 05:12:11;;;;;;;6.00;3.00;;;4.30;99.90;;;;;;5035964;28;20044;-63
2023/01/16 05:14:36;;;;;;;5.20;3.13;;;4.30;99.90;;;;;;5035910;28;20041;-63
2023/01/16 05:17:02;;;;;;;7.88;3.45;;;4.30;99.90;;;;;;5035287;28;20444;-63
2023/01/16 05:19:28;;;;;;;6.45;3.38;;;4.30;99.90;;;;;;5034893;28;20064;-63
2023/01/16 05:21:53;;;;;;;7.47;3.85;;;4.30;99.90;;;;;;5035481;28;20555;-63
2023/01/16 05:24:19;;;;;;;5.28;3.35;;;4.20;99.90;;;;;;5018011;28;20029;-63
2023/01/16 05:26:44;;;;;;;7.40;2.97;;;4.20;99.90;;;;;;5035727;28;20045;-63
2023/01/16 05:29:10;;;;;;;8.30;3.90;;;4.20;99.90;;;;;;5035591;28;20045;-63
2023/01/16 05:31:35;;;;;;;5.95;3.53;;;4.10;99.90;;;;;;5035590;28;20041;-63
2023/01/16 05:34:01;;;;;;;5.05;3.65;;;4.00;99.90;;;;;;5035578;28;20052;-63
2023/01/16 05:36:27;;;;;;;7.72;4.00;;;3.90;99.90;;;;;;5035484;28;20503;-63
2023/01/16 05:38:54;;;;;;;9.90;3.05;;;3.90;99.90;;;;;;5017575;28;20152;-63
2023/01/16 05:41:19;;;;;;;5.53;2.97;;;3.90;99.90;;;;;;5035458;28;20120;-64
2023/01/16 05:43:45;;;;;;;11.52;3.58;;;3.80;99.90;;;;;;5035351;28;20146;-63
2023/01/16 05:46:10;;;;;;;5.38;3.38;;;3.80;99.90;;;;;;5035354;28;20036;-64
2023/01/16 05:48:37;;;;;;;7.45;3.22;;;3.70;99.90;;;;;;5035299;28;20042;-63
2023/01/16 05:51:03;;;;;;;8.98;4.13;;;3.70;99.90;;;;;;5035197;28;20044;-63
2023/01/16 05:53:30;;;;;;;6.05;3.97;;;3.70;99.90;;;;;;5035147;28;20129;-64
2023/01/16 05:55:56;;;;;;;6.00;3.42;;;3.70;99.90;;;;;;5034877;28;20041;-63
2023/01/16 05:58:22;;;;;;;8.48;4.03;;;3.70;99.90;;;;;;5034849;28;20038;-63
2023/01/16 06:00:48;;;;;;;6.15;3.33;;;3.60;99.90;;;;;;5035092;28;20044;-63
2023/01/16 06:03:15;;;;;;;8.38;3.88;;;3.60;99.90;;;;;;5034725;28;20409;-63
2023/01/16 06:05:41;;;;;;;5.30;3.25;;;3.60;99.90;;;;;;5034987;28;20037;-63
2023/01/16 06:08:07;;;;;;;6.85;3.60;;;3.60;99.90;;;;;;5034987;28;20393;-64
2023/01/16 06:10:33;;;;;;;5.82;3.72;;;3.60;99.90;;;;;;5034519;28;20038;-64
2023/01/16 06:13:00;;;;;;;8.25;3.97;;;3.70;99.90;;;;;;5034914;28;20050;-63
2023/01/16 06:15:26;;;;;;;8.82;3.38;;;3.70;99.90;;;;;;5034815;28;20038;-63
2023/01/16 06:17:53;;;;;;;6.38;3.80;;;3.70;99.90;;;;;;5016680;28;20550;-63
2023/01/16 06:20:19;;;;;;;5.65;2.78;;;3.70;99.90;;;;;;5034333;28;20116;-63
2023/01/16 06:22:45;;;;;;;11.43;4.28;;;3.70;99.90;;;;;;5016520;28;20115;-62
2023/01/16 06:25:11;;;;;;;8.95;3.70;;;3.80;99.90;;;;;;5034542;28;20065;-65
2023/01/16 06:27:37;;;;;;;3.78;2.10;;;3.80;99.90;;;;;;5034447;28;20500;-65
2023/01/16 06:30:04;;;;;;;11.52;3.30;;;3.70;99.90;;;;;;5034285;28;20477;-65
2023/01/16 06:32:30;;;;;;;5.60;3.08;;;3.60;99.90;;;;;;5016581;28;20493;-65
2023/01/16 06:34:55;;;;;;;5.20;3.13;;;3.60;99.90;;;;;;5016478;28;20044;-65
2023/01/16 06:37:21;;;;;;;5.70;2.97;;;3.60;99.90;;;;;;5033984;28;20037;-63
2023/01/16 06:39:47;;;;;;;4.75;2.70;;;3.60;99.90;;;;;;5034248;28;20075;-63
2023/01/16 06:42:12;;;;;;;6.95;3.40;;;3.50;99.90;;;;;;5033908;28;20192;-63
2023/01/16 06:44:38;;;;;;;4.50;2.75;;;3.50;99.90;;;;;;5016235;28;20048;-63
2023/01/16 06:47:04;;;;;;;5.55;2.63;;;3.50;99.90;;;;;;5034135;28;20037;-63
2023/01/16 06:49:29;;;;;;;6.18;3.00;;;3.50;99.90;;;;;;5034139;28;20045;-63
2023/01/16 06:51:55;;;;;;;6.03;2.80;;;3.40;99.90;;;;;;5033834;28;20056;-64
2023/01/16 06:54:20;;;;;;;5.20;2.75;;;3.40;99.90;;;;;;5033991;28;20033;-65
2023/01/16 06:56:46;;;;;;;4.90;2.53;;;3.30;99.90;;;;;;5033448;28;20037;-64
2023/01/16 06:59:11;;;;;;;4.05;2.38;;;3.30;99.90;;;;;;5032946;28;20033;-64
2023/01/16 07:01:37;;;;;;;4.60;2.25;;;3.30;99.90;;;;;;5033046;28;20637;-64
2023/01/16 07:04:03;;;;;;;3.97;2.17;;;3.30;99.90;;;;;;5032569;28;20049;-64
2023/01/16 07:06:28;;;;;;;3.85;2.63;;;3.20;99.90;;;;;;5015117;28;20502;-64
2023/01/16 07:08:54;;;;;;;3.08;2.05;;;3.20;99.90;;;;;;5032593;28;20042;-65
2023/01/16 07:11:20;;;;;;;3.88;2.10;;;3.20;99.90;;;;;;5032524;28;20049;-64
2023/01/16 07:13:45;;;;;;;3.40;1.73;;;3.20;99.90;;;;;;5032776;28;20056;-65
2023/01/16 07:24:33;;;;;;;7.65;2.13;;;3.00;99.90;;;;;;5014905;28;20052;-65
2023/01/16 07:27:04;;;;;;;4.85;2.25;;;3.10;99.90;;;;;;5032581;28;20037;-65
2023/01/16 07:29:31;;;;;;;5.20;2.78;;;3.00;99.90;;;;;;5032667;28;20037;-65
2023/01/16 07:31:59;;;;;;;5.63;2.30;;;3.00;99.90;;;;;;5032295;28;20499;-65
2023/01/16 07:34:24;;;;;;;3.05;1.90;;;3.00;99.90;;;;;;5032149;28;20052;-65
2023/01/16 07:36:50;;;;;;;4.53;1.95;;;3.10;99.90;;;;;;5032152;28;20045;-64
2023/01/16 07:39:16;;;;;;;5.85;2.03;;;3.10;99.90;;;;;;5032123;28;20073;-65
2023/01/16 07:41:41;;;;;;;2.50;1.60;;;3.10;99.90;;;;;;5031676;28;20034;-65
2023/01/16 07:44:07;;;;;;;4.93;2.15;;;3.10;99.90;;;;;;5032349;28;20033;-66
2023/01/16 07:46:33;;;;;;;1.85;1.50;;;3.00;99.90;;;;;;5032307;28;20042;-65
2023/01/16 07:48:58;;;;;;;5.22;1.85;;;3.10;99.90;;;;;;5014267;28;20049;-64
2023/01/16 07:51:24;;;;;;;2.03;1.63;;;3.10;99.90;;;;;;5032240;28;20424;-64
2023/01/16 07:53:50;;;;;;;4.57;1.88;;;3.10;99.90;;;;;;5031977;28;20041;-64
2023/01/16 07:56:15;;;;;;;4.70;1.60;;;3.10;99.90;;;;;;5014156;28;20042;-65
2023/01/16 07:58:42;;;;;;;4.13;1.55;;;3.20;99.90;;;;;;5032081;28;20045;-65
2023/01/16 08:01:09;;;;;;;3.20;2.25;;;3.20;99.90;;;;;;5014226;28;20052;-65
2023/01/16 08:03:34;;;;;;;4.50;2.45;;;3.20;99.90;;;;;;5031795;28;20501;-65
2023/01/16 08:06:02;;;;;;;4.10;1.88;;;3.20;99.90;;;;;;5032038;28;20125;-65
2023/01/16 08:08:28;;;;;;;4.28;2.15;;;3.20;99.90;;;;;;5014415;28;20045;-65
2023/01/16 08:10:58;;;;;;;7.20;2.33;;;3.30;99.90;;;;;;5031758;28;20034;-65
2023/01/16 08:13:25;;;;;;;8.43;2.35;;;3.30;99.90;;;;;;5014266;28;20045;-65
2023/01/16 08:15:52;;;;;;;4.63;2.25;;;3.30;99.90;;;;;;5014058;28;20086;-65
2023/01/16 08:18:18;;;;;;;4.85;2.17;;;3.40;99.90;;;;;;5013929;28;20079;-65
2023/01/16 08:20:44;;;;;;;3.40;1.73;;;3.30;99.90;;;;;;5014161;28;20046;-65
2023/01/16 08:23:11;;;;;;;3.45;2.40;;;3.40;99.90;;;;;;5013734;28;20042;-66
2023/01/16 08:25:36;;;;;;;4.30;2.67;;;3.40;99.90;;;;;;5031947;28;20049;-67
2023/01/16 08:28:03;;;;;;;3.17;1.85;;;3.40;99.90;;;;;;5013908;28;20038;-66
2023/01/16 08:30:28;;;;;;;6.10;1.95;;;3.40;99.90;;;;;;5013909;28;20400;-66
2023/01/16 08:33:01;;;;;;;3.38;2.10;;;3.40;99.90;;;;;;4997586;28;20041;-65
2023/01/16 08:35:27;;;;;;;3.63;2.00;;;3.50;99.90;;;;;;4997546;28;20045;-66
2023/01/16 08:37:53;;;;;;;2.72;1.85;;;3.50;99.90;;;;;;4997595;28;20037;-66
2023/01/16 08:40:20;;;;;;;2.67;1.48;;;3.50;99.90;;;;;;4997426;28;20049;-66
2023/01/16 08:51:24;;;;;;;4.43;2.30;;;3.60;99.90;;;;;;5013658;28;20080;-65
2023/01/16 08:53:55;;;;;;;4.70;1.67;;;3.60;99.90;;;;;;5016977;28;20049;-66
2023/01/16 08:56:22;;;;;;;3.95;1.90;;;3.70;99.90;;;;;;5017870;28;20045;-66
2023/01/16 08:58:48;;;;;;;2.65;1.55;;;3.70;99.90;;;;;;5035286;28;20103;-66
2023/01/16 09:01:15;;;;;;;2.78;1.60;;;3.70;99.90;;;;;;5035062;28;20052;-66
2023/01/16 09:03:41;;;;;;;4.28;2.05;;;3.80;99.90;;;;;;5034857;28;20057;-65
2023/01/16 09:06:07;;;;;;;2.17;1.20;;;3.80;99.90;;;;;;5017179;28;20537;-66
2023/01/16 09:08:32;;;;;;;3.55;1.80;;;3.80;99.90;;;;;;5035176;28;20034;-66
2023/01/16 09:13:48;;;;;;;3.80;1.45;;;3.80;99.90;;;;;;5034790;28;20049;-66
2023/01/16 09:16:15;;;;;;;4.50;1.80;;;3.90;99.90;;;;;;5016942;28;20385;-66
2023/01/16 09:18:40;;;;;;;4.13;1.58;;;3.90;99.90;;;;;;5034799;28;20049;-66
2023/01/16 09:21:06;;;;;;;2.17;1.40;;;3.90;99.90;;;;;;5034903;28;20033;-66
2023/01/16 09:23:32;;;;;;;2.65;1.52;;;3.90;99.90;;;;;;5016869;28;20523;-66
2023/01/16 09:25:57;;;;;;;2.50;1.50;;;4.00;99.90;;;;;;5034630;28;20112;-66
2023/01/16 09:28:23;;;;;;;1.20;0.90;;;3.90;99.90;;;;;;5034782;28;20127;-66
2023/01/16 09:30:51;;;;;;;4.75;1.70;;;4.00;99.90;;;;;;5035085;28;20045;-66
2023/01/16 09:33:17;;;;;;;4.25;1.83;;;4.00;99.90;;;;;;5016612;28;20412;-66
2023/01/16 09:35:42;;;;;;;4.20;1.77;;;4.00;99.90;;;;;;5034743;28;20120;-67
2023/01/16 09:38:08;;;;;;;1.45;1.10;;;4.00;99.90;;;;;;5034577;28;20041;-66
2023/01/16 09:40:33;;;;;;;3.05;1.42;;;4.00;99.90;;;;;;5016828;28;20037;-66
2023/01/16 09:43:38;;;;;;;2.58;1.58;;;4.00;99.90;;;;;;5016459;28;20083;-66
2023/01/16 09:46:17;;;;;;;2.13;1.20;;;4.10;99.90;;;;;;5034164;28;20057;-67
2023/01/16 09:48:48;;;;;;;8.43;1.50;;;4.00;99.90;;;;;;5016409;28;20046;-67
2023/01/16 09:51:19;;;;;;;1.98;0.95;;;4.00;99.90;;;;;;5034108;28;20033;-67
2023/01/16 09:59:38;;;;;;;1.38;0.95;;;4.00;99.90;;;;;;5016089;28;20136;-67
2023/01/16 10:02:36;;;;;;;3.63;0.57;;;4.00;99.90;;;;;;5016145;28;20409;-66
2023/01/16 10:05:04;;;;;;;2.30;1.27;;;4.10;99.90;;;;;;5000004;28;20050;-66
2023/01/16 10:07:56;;;;;;;1.35;0.90;;;4.00;99.90;;;;;;5016334;28;20049;-66
2023/01/16 10:10:36;;;;;;;2.00;0.73;;;4.10;99.90;;;;;;5015900;28;20041;-66
2023/01/16 10:13:34;;;;;;;2.33;0.90;;;4.10;99.90;;;;;;5033809;28;20124;-66
2023/01/16 10:16:19;;;;;;;1.48;0.90;;;4.10;99.90;;;;;;5033103;28;20049;-66
2023/01/16 10:19:06;;;;;;;1.38;0.80;;;4.10;99.90;;;;;;5033821;28;20072;-67
2023/01/16 10:21:48;;;;;;;1.45;0.60;;;4.10;99.90;;;;;;5015951;28;20053;-67
2023/01/16 10:24:49;;;;;;;0.82;0.68;;;4.20;99.90;;;;;;5015664;28;20045;-67
2023/01/16 10:28:00;;;;;;;1.30;0.70;;;4.20;99.90;;;;;;5033681;28;20041;-67
2023/01/16 10:30:37;;;;;;;5.90;0.98;;;4.20;99.90;;;;;;5033686;28;20358;-67
2023/01/16 10:33:21;;;;;;;1.58;0.80;;;4.20;99.90;;;;;;5015562;28;20397;-67
2023/01/16 10:35:49;;;;;;;1.50;0.70;;;4.20;99.90;;;;;;5033587;28;20049;-67
2023/01/16 10:38:51;;;;;;;0.70;0.55;;;4.20;99.90;;;;;;5033365;28;20073;-67
2023/01/16 10:49:59;;;;;;;2.40;0.75;;;4.00;99.90;;;;;;5033313;28;20056;-66
2023/01/16 10:52:25;;;;;;;0.70;0.47;;;3.90;99.90;;;;;;5033280;28;20076;-67
2023/01/16 10:54:53;;;;;;;0.60;0.52;;;3.90;99.90;;;;;;5033164;28;20504;-67
2023/01/16 10:57:20;;;;;;;0.40;0.40;;;3.90;99.90;;;;;;5032983;28;20053;-66
2023/01/16 10:59:48;;;;;;;0.73;0.50;;;3.90;99.90;;;;;;5032865;28;20045;-67
2023/01/16 11:02:39;;;;;;;5.00;0.70;;;3.90;99.90;;;;;;5015217;28;20127;-66
2023/01/16 11:05:30;;;;;;;0.93;0.60;;;3.80;99.90;;;;;;5032835;28;20073;-66
2023/01/16 11:08:06;;;;;;;0.70;0.50;;;3.80;99.90;;;;;;5032855;28;20039;-66
2023/01/16 11:10:32;;;;;;;0.70;0.60;;;3.80;99.90;;;;;;5015009;28;20103;-66
2023/01/16 11:18:48;;;;;;;0.40;0.40;;;3.70;99.90;;;;;;5032930;28;20045;-66
2023/01/16 11:21:29;;;;;;;0.80;0.60;;;3.80;99.90;;;;;;5032533;28;20564;-67
2023/01/16 11:24:16;;;;;;;1.20;0.70;;;3.80;99.90;;;;;;5032704;28;20041;-66
2023/01/16 11:26:50;;;;;;;0.82;0.60;;;3.80;99.90;;;;;;5015033;28;20041;-66
2023/01/16 11:29:18;;;;;;;1.88;0.73;;;3.80;99.90;;;;;;5015018;28;20045;-67
2023/01/16 11:31:53;;;;;;;0.40;0.40;;;3.70;99.90;;;;;;5032614;28;20080;-66
2023/01/16 11:34:20;;;;;;;2.20;1.05;;;3.80;99.90;;;;;;5032535;28;20049;-66
2023/01/16 11:36:47;;;;;;;1.55;0.80;;;3.80;99.90;;;;;;5014477;28;20444;-67
2023/01/16 11:39:25;;;;;;;1.55;0.70;;;3.80;99.90;;;;;;5032539;28;20048;-67
2023/01/16 11:41:53;;;;;;;0.60;0.50;;;3.80;99.90;;;;;;5032496;28;20037;-67
2023/01/16 11:47:09;;;;;;;1.20;0.70;;;3.80;99.90;;;;;;5032517;28;20037;-67
2023/01/16 11:49:45;;;;;;;1.80;1.05;;;3.90;99.90;;;;;;5032060;28;20052;-67
2023/01/16 11:52:14;;;;;;;1.15;0.60;;;3.90;99.90;;;;;;5032332;28;20053;-67
2023/01/16 11:54:40;;;;;;;1.25;0.70;;;3.90;99.90;;;;;;5032258;28;20044;-67
2023/01/16 11:57:19;;;;;;;1.52;0.80;;;3.90;99.90;;;;;;5032284;28;20041;-67
2023/01/16 12:00:03;;;;;;;1.80;1.05;;;3.90;99.90;;;;;;5014142;28;20409;-67
2023/01/16 12:02:58;;;;;;;1.88;0.80;;;3.90;99.90;;;;;;5014095;28;20045;-67
2023/01/16 12:06:00;;;;;;;1.83;0.73;;;3.90;99.90;;;;;;5032186;28;20041;-67
2023/01/16 12:08:25;;;;;;;0.90;0.55;;;3.90;99.90;;;;;;5031881;28;20045;-67
2023/01/16 12:11:19;;;;;;;1.42;0.77;;;3.90;99.90;;;;;;5032052;28;20052;-67
2023/01/16 12:14:20;;;;;;;3.13;0.90;;;4.00;99.90;;;;;;5014157;28;20049;-67
2023/01/16 12:17:04;;;;;;;1.98;0.70;;;4.00;99.90;;;;;;5014144;28;20051;-67
2023/01/16 12:19:42;;;;;;;1.52;0.70;;;4.00;99.90;;;;;;5031962;28;20406;-67
2023/01/16 12:22:21;;;;;;;1.20;0.60;;;4.10;99.90;;;;;;5032096;28;20088;-67
2023/01/16 12:25:18;;;;;;;1.02;0.55;;;4.10;99.90;;;;;;5013958;28;20060;-67
2023/01/16 12:28:00;;;;;;;1.25;0.55;;;4.10;99.90;;;;;;5033778;28;20445;-66
2023/01/16 12:31:10;;;;;;;1.83;0.80;;;4.10;99.90;;;;;;5035894;28;20045;-67
2023/01/16 12:34:13;;;;;;;2.47;1.02;;;4.10;99.90;;;;;;5035821;28;20463;-67
2023/01/16 12:37:01;;;;;;;2.42;0.95;;;4.20;99.90;;;;;;5017933;28;20064;-67
2023/01/16 12:39:27;;;;;;;6.80;1.13;;;4.20;99.90;;;;;;5018448;28;20082;-66
2023/01/16 12:45:42;;;;;;;1.73;0.80;;;4.30;99.90;;;;;;5036537;28;20041;-66
2023/01/16 12:48:27;;;;;;;1.80;0.85;;;4.30;99.90;;;;;;5005614;28;20045;-66
2023/01/16 12:51:09;;;;;;;1.00;0.85;;;4.30;99.90;;;;;;5036207;28;20601;-65
2023/01/16 12:54:09;;;;;;;1.73;1.08;;;4.40;99.90;;;;;;5036302;28;20400;-66
2023/01/16 12:56:53;;;;;;;1.50;1.13;;;4.40;99.90;;;;;;5015508;28;20532;-67
2023/01/16 12:59:34;;;;;;;3.88;0.77;;;4.40;99.90;;;;;;5018193;28;20418;-66
2023/01/16 13:02:11;;;;;;;3.35;0.82;;;4.40;99.90;;;;;;5018569;28;20512;-67
2023/01/16 13:04:42;;;;;;;2.17;0.93;;;4.40;99.90;;;;;;5035701;28;20054;-67
2023/01/16 13:07:16;;;;;;;1.60;0.80;;;4.30;99.90;;;;;;5018172;28;20095;-67
2023/01/16 13:15:59;;;;;;;1.17;1.08;;;4.40;99.90;;;;;;4991748;28;20120;-67
2023/01/16 13:18:50;;;;;;;1.15;1.05;;;4.40;99.90;;;;;;5017840;28;20050;-67
2023/01/16 13:21:36;;;;;;;1.50;0.80;;;4.40;99.90;;;;;;5035592;28;20077;-67
2023/01/16 13:24:18;;;;;;;4.97;0.80;;;4.40;99.90;;;;;;5035817;28;20412;-66
2023/01/16 13:26:49;;;;;;;0.85;0.60;;;4.40;99.90;;;;;;5017739;28;20037;-66
2023/01/16 13:29:25;;;;;;;1.05;0.80;;;4.40;99.90;;;;;;5017727;28;20045;-66
2023/01/16 13:31:59;;;;;;;0.77;0.75;;;4.40;99.90;;;;;;5035710;28;20112;-66
2023/01/16 13:34:38;;;;;;;0.98;0.85;;;4.50;99.90;;;;;;5017849;28;20098;-67
2023/01/16 13:37:31;;;;;;;3.38;0.70;;;4.50;99.90;;;;;;5017599;28;20041;-67
2023/01/16 13:40:24;;;;;;;1.23;0.93;;;4.50;99.90;;;;;;5034479;28;20034;-67
2023/01/16 13:45:47;;;;;;;0.73;0.70;;;4.50;99.90;;;;;;5035445;28;20052;-68
2023/01/16 13:45:49;;;;;;;1.33;0.93;;;4.60;99.90;;;;;;5035017;28;20053;-67
2023/01/16 13:48:32;;;;;;;1.23;0.85;;;4.50;99.90;;;;;;5035358;28;20038;-67
2023/01/16 13:51:07;;;;;;;0.82;0.60;;;4.60;99.90;;;;;;5035410;28;20052;-67
2023/01/16 13:53:36;;;;;;;1.02;0.77;;;4.60;99.90;;;;;;5035237;28;20095;-67
2023/01/16 13:56:14;;;;;;;1.60;0.70;;;4.60;99.90;;;;;;5035205;28;20068;-67
2023/01/16 13:58:44;;;;;;;4.93;0.70;;;5.10;99.90;;;;;;5035128;28;20034;-67
2023/01/16 14:01:37;;;;;;;1.42;0.70;;;4.60;99.90;;;;;;5034831;28;20095;-67
2023/01/16 14:04:15;;;;;;;1.23;0.70;;;4.60;99.90;;;;;;5034749;28;20049;-67
2023/01/16 14:06:49;;;;;;;1.27;0.80;;;4.60;99.90;;;;;;5034967;28;20128;-66
2023/01/16 14:09:18;;;;;;;0.95;0.70;;;4.60;99.90;;;;;;5034937;28;20045;-67
2023/01/16 14:12:00;;;;;;;1.75;1.00;;;4.60;99.90;;;;;;5016843;28;20386;-67
2023/01/16 14:17:49;;;;;;;1.15;1.00;;;4.60;99.90;;;;;;5016742;28;20053;-66
2023/01/16 14:20:42;;;;;;;1.05;0.73;;;4.60;99.90;;;;;;5034288;28;20038;-67
2023/01/16 14:26:06;;;;;;;0.98;0.70;;;4.60;99.90;;;;;;5034670;28;20041;-67
2023/01/16 14:28:33;;;;;;;3.97;0.70;;;4.60;99.90;;;;;;5034580;28;20433;-67
2023/01/16 14:31:00;;;;;;;1.13;0.90;;;4.60;99.90;;;;;;5034611;28;20084;-66